Portada
METAR-TAF:

METAR-TAF

Aeroports :

Sohag, Egipte

latitud: 26-20-25N, longitud: 31-44-20E, altitud: 70 m

Observació

L'informe es va fer fa 1 hora i 35 minuts, a les 17:00 UTC
Vent 12 kt del Nord-Oest
Temperatura 29°C
Humitat 16%
Pressió 1008 hPa
Visibilitat 10 km o més
sense núvols per sota de 1500 mi sense presència de cumulonimbus.

METAR: HESG 231700Z 31012KT CAVOK 29/01 Q1008 NOSIG

Hora: 20:35 (18:35 UTC)

Pronòstic

L'informe es va fer fa 1 hora i 35 minuts, a les 17:00 UTC
Pronòstic vàlid del 23 a les 18 UTC al 24 a les 24 UTC
Vent 12 kt del Nord
Visibilitat 10 km o més
sense núvols per sota de 1500 mi sense presència de cumulonimbus.

TAF: HESG 231700Z 2318/2424 36012KT CAVOK

Observacions i pronòstics meteorològics de més de 4000 aeroports (METAR i TAF).

Les estacions disponibles són els punts grocs i vermells al mapa.

Posi el ratolí al punt desitjat per veure el nom de l'estació.

Feu clic per veure les observacions i els pronòstics meteorològics.

Per canviar el mapa: feu clic els botons verds amb una creu de color negre per apropar; al botó verd amb un guió per allunyar la imatge; o en les fletxes verdes per a mapes adjacents.


METAR-TAF: